메인 페이지
METAR-TAF:

METAR-TAF

공항 :

암리차르, 인도

위도: 31-38N, 경도: 074-52E, 고도: 229m

현재 날씨관측

예보는 16분 전, 08:30시(UTC)에 발표되었습니다.
여러 방향의 바람 2kt
온도 39°C
습도 24%
기압 998 hPa
시정: 6000m

METAR: VIAR 240830Z VRB02KT 6000 NSC 39/15 Q0998 NOSIG

시각: 14:16 (08:46 UTC)

예보

예보는 3 시간 46분 전, 05:00시(UTC)에 발표되었습니다.
예보 대상 시간: 24일 06시부터 25일 12시까지 (UTC)
서북서10kt
시정: 5000m
고도 4000ft 상공 구름 보통
고도 10000ft 상공 구름 보통
연무
전환 중
24일 16시부터 24일 17시까지 (UTC)
여러 방향의 바람 2kt
시정: 4500m
연무
전환 중
25일 07시부터 25일 08시까지 (UTC)
8kt
일시적
25일 09시부터 25일 12시까지 (UTC)
고도 4000ft 상공 구름 조금, 적란운.

TAF: VIAR 240500Z 2406/2512 30010KT 5000 HZ SCT040 SCT100 BECMG 2416/2417 VRB02KT 4500 HZ NSC BECMG 2507/2508 27008KT TEMPO 2509/2512 FEW040CB

4,000개 이상의 공항 관측 자료 및 예보 (METAR 및 TAF 보고).

지도상에서 검색 가능한 기상관측소가 노란 점과 빨간 점으로 표시되어 있습니다.

기상관측소 명을 보려면 표시 위로 마우스를 이동하세요.

날씨 관측과 예보를 보려면 클릭하세요.

지도 변경 : 확대하려면 엑스 표시가 있는 녹색 버튼, 축소하려면 빼기 표시가 있는 녹색 버튼, 다음 페이지의 지도를 보려면 녹색 화살표를 클릭하세요.


METAR-TAF: